Time;durP1;ratioP1;P1;durP2;ratioP2;P2;SDS_P1;SDS_P2;PMS_P1;PMS_P2;Temp;Humidity;BMP_temperature;BMP_pressure;BME280_temperature;BME280_humidity;BME280_pressure;Samples;Min_cycle;Max_cycle;Signal;HPM_P1;HPM_P2
2022/08/09 00:00:17;;;;;;;3.97;2.33;;;;;;;17.62;62.76;102595.44;5016335;28;20394;-74
2022/08/09 00:02:42;;;;;;;3.35;2.35;;;;;;;17.60;63.07;102594.63;5017859;28;20029;-74
2022/08/09 00:05:08;;;;;;;2.80;2.20;;;;;;;17.58;62.83;102593.84;5014596;28;20026;-72
2022/08/09 00:07:33;;;;;;;3.92;2.50;;;;;;;17.54;63.33;102589.53;5011427;28;20113;-74
2022/08/09 00:09:58;;;;;;;3.90;2.42;;;;;;;17.49;63.39;102588.81;5010331;28;20511;-73
2022/08/09 00:12:23;;;;;;;4.13;2.40;;;;;;;17.45;63.49;102588.88;5014844;28;20029;-73
2022/08/09 00:14:50;;;;;;;3.53;2.30;;;;;;;17.42;63.49;102583.69;5012436;28;20057;-74
2022/08/09 00:17:15;;;;;;;4.63;2.35;;;;;;;17.38;63.83;102582.06;5010658;28;20022;-73
2022/08/09 00:19:40;;;;;;;5.80;2.70;;;;;;;17.36;63.55;102581.25;5016220;28;20504;-73
2022/08/09 00:22:06;;;;;;;4.80;2.67;;;;;;;17.33;63.98;102583.09;5014488;28;20025;-73
2022/08/09 00:24:31;;;;;;;6.13;2.65;;;;;;;17.29;64.54;102579.66;5010781;28;20092;-73
2022/08/09 00:26:58;;;;;;;4.93;2.60;;;;;;;17.24;64.16;102581.56;5013872;28;20025;-73
2022/08/09 00:29:25;;;;;;;5.13;2.70;;;;;;;17.19;64.38;102581.66;5010384;28;20034;-73
2022/08/09 00:31:50;;;;;;;6.25;2.80;;;;;;;17.16;64.62;102580.91;5009298;28;20019;-73
2022/08/09 00:34:16;;;;;;;4.00;2.60;;;;;;;17.12;64.57;102586.22;5009613;28;20397;-73
2022/08/09 00:36:41;;;;;;;4.25;2.58;;;;;;;17.10;64.72;102580.13;5013506;28;20053;-74
2022/08/09 00:39:07;;;;;;;5.95;2.30;;;;;;;17.05;64.95;102574.16;5014827;28;20025;-73
2022/08/09 00:41:33;;;;;;;3.17;2.40;;;;;;;17.02;65.18;102578.59;5014711;28;20116;-74
2022/08/09 00:43:58;;;;;;;3.58;2.40;;;;;;;16.98;65.24;102570.81;5013379;28;20032;-73
2022/08/09 00:46:23;;;;;;;5.20;2.55;;;;;;;16.93;65.61;102577.03;5014063;28;20025;-73
2022/08/09 00:48:48;;;;;;;3.40;2.47;;;;;;;16.91;65.53;102576.25;5013985;28;20033;-73
2022/08/09 00:51:15;;;;;;;4.35;2.20;;;;;;;16.87;65.53;102585.94;5014575;28;20022;-73
2022/08/09 00:53:41;;;;;;;3.10;2.35;;;;;;;16.82;65.98;102579.97;5013665;28;20308;-73
2022/08/09 00:56:07;;;;;;;4.03;2.33;;;;;;;16.80;66.21;102587.00;5014716;28;20691;-73
2022/08/09 00:58:36;;;;;;;4.07;2.30;;;;;;;16.78;66.37;102587.03;5014276;28;20034;-73
2022/08/09 01:01:09;;;;;;;3.78;2.30;;;;;;;16.76;66.39;102586.19;5016076;28;20018;-73
2022/08/09 01:03:53;;;;;;;4.53;2.40;;;;;;;16.77;64.59;102585.31;5014253;28;20061;-73
2022/08/09 01:06:56;;;;;;;4.63;2.40;;;;;;;16.76;65.01;102591.47;5018237;28;20168;-73
2022/08/09 01:09:29;;;;;;;3.63;2.50;;;;;;;16.75;66.68;102586.25;5018140;28;20029;-73
2022/08/09 01:12:11;;;;;;;2.95;2.17;;;;;;;16.73;65.75;102583.66;5013544;28;20127;-73
2022/08/09 01:14:47;;;;;;;4.20;2.10;;;;;;;16.74;65.53;102585.38;5027927;28;20508;-73
2022/08/09 01:17:26;;;;;;;3.90;2.30;;;;;;;16.68;65.91;102585.53;5014277;28;20029;-72
2022/08/09 01:19:58;;;;;;;4.70;2.60;;;;;;;16.66;66.80;102584.69;5021140;28;20033;-73
2022/08/09 01:22:58;;;;;;;4.55;2.42;;;;;;;16.65;65.73;102585.59;5017101;28;20113;-73
2022/08/09 01:25:59;;;;;;;3.60;2.33;;;;;;;16.65;64.95;102580.34;5013487;28;20306;-73
2022/08/09 01:28:25;;;;;;;;;;;;;;;16.70;63.65;102589.00;5013244;28;20018;-73
2022/08/09 01:30:54;;;;;;;3.60;2.30;;;;;;;16.61;66.47;102590.06;5014356;28;19967;-73
2022/08/09 01:33:24;;;;;;;2.65;2.20;;;;;;;16.59;66.43;102588.34;5013766;28;20124;-73
2022/08/09 01:36:01;;;;;;;5.00;2.55;;;;;;;16.54;66.12;102581.47;5013204;28;20115;-73
2022/08/09 01:38:29;;;;;;;4.13;2.60;;;;;;;16.52;66.83;102579.75;5014058;28;20115;-73
2022/08/09 01:41:00;;;;;;;3.88;2.53;;;;;;;16.49;66.93;102580.69;5013739;28;20033;-73
2022/08/09 01:43:26;;;;;;;5.73;2.50;;;;;;;16.49;67.21;102580.69;5014898;28;20021;-73
2022/08/09 01:45:53;;;;;;;3.60;2.42;;;;;;;16.45;67.48;102573.78;5014383;28;20331;-73
2022/08/09 01:48:20;;;;;;;5.05;2.45;;;;;;;16.39;67.22;102569.53;5014002;28;20029;-73
2022/08/09 01:50:50;;;;;;;6.63;2.50;;;;;;;16.37;67.29;102579.22;5012428;28;20030;-73
2022/08/09 01:53:19;;;;;;;7.45;2.78;;;;;;;16.36;67.38;102574.84;5011986;28;20095;-73
2022/08/09 01:55:46;;;;;;;3.95;2.35;;;;;;;16.33;67.57;102576.69;5012416;28;20141;-73
2022/08/09 01:58:13;;;;;;;3.42;2.40;;;;;;;16.30;67.59;102580.25;5012880;28;20017;-72
2022/08/09 02:00:40;;;;;;;5.10;2.60;;;;;;;16.27;67.84;102576.81;5010559;28;20112;-73
2022/08/09 02:03:06;;;;;;;3.60;2.28;;;;;;;16.29;67.63;102581.16;5011633;28;20052;-73
2022/08/09 02:05:34;;;;;;;4.20;2.65;;;;;;;16.28;67.78;102589.06;5013688;28;20030;-73
2022/08/09 02:08:03;;;;;;;4.35;2.80;;;;;;;16.26;67.55;102585.59;5013053;28;20025;-73
2022/08/09 02:10:32;;;;;;;4.57;2.35;;;;;;;16.24;67.39;102581.22;5010969;28;20045;-73
2022/08/09 02:13:04;;;;;;;4.65;3.25;;;;;;;16.23;66.73;102590.00;5010819;28;20389;-73
2022/08/09 02:15:32;;;;;;;5.20;3.67;;;;;;;16.19;66.93;102598.88;5014068;28;20025;-73
2022/08/09 02:17:59;;;;;;;5.22;3.38;;;;;;;16.17;67.34;102599.78;5016736;28;20079;-73
2022/08/09 02:20:27;;;;;;;4.72;3.45;;;;;;;16.14;67.48;102586.75;5012971;28;20025;-73
2022/08/09 02:23:13;;;;;;;4.13;3.10;;;;;;;16.12;66.28;102588.53;5011114;28;20105;-73
2022/08/09 02:25:41;;;;;;;5.45;2.80;;;;;;;16.07;67.76;102592.13;5011423;28;20079;-73
2022/08/09 02:28:15;;;;;;;3.63;2.72;;;;;;;16.05;67.55;102587.81;5012743;28;20091;-73
2022/08/09 02:31:03;;;;;;;3.45;2.58;;;;;;;15.98;68.07;102584.41;5014909;28;20083;-73
2022/08/09 02:33:34;;;;;;;3.85;2.50;;;;;;;15.96;68.12;102586.22;5009054;28;20038;-73
2022/08/09 02:36:01;;;;;;;4.57;2.58;;;;;;;15.91;68.31;102588.91;5013726;28;20054;-73
2022/08/09 02:38:31;;;;;;;5.07;2.58;;;;;;;15.91;68.12;102588.06;5013335;28;20026;-73
2022/08/09 02:41:07;;;;;;;4.28;2.53;;;;;;;15.87;67.62;102581.16;5010716;28;20477;-73
2022/08/09 02:43:36;;;;;;;4.65;2.78;;;;;;;15.81;68.73;102583.84;5012054;28;20036;-73
2022/08/09 02:46:06;;;;;;;2.95;2.50;;;;;;;15.74;69.06;102581.38;5012362;28;21038;-73
2022/08/09 02:48:35;;;;;;;3.92;2.55;;;;;;;15.70;69.27;102578.84;5010209;28;20022;-72
2022/08/09 02:51:02;;;;;;;3.78;2.47;;;;;;;15.69;69.28;102582.34;5011623;28;20030;-73
2022/08/09 02:53:31;;;;;;;3.80;2.92;;;;;;;15.68;69.23;102581.47;5010796;28;20477;-72
2022/08/09 02:55:59;;;;;;;3.67;2.63;;;;;;;15.67;69.64;102576.28;5014026;28;20033;-73
2022/08/09 02:58:28;;;;;;;3.10;2.60;;;;;;;15.62;69.51;102576.38;5010821;28;20100;-73
2022/08/09 03:00:54;;;;;;;4.63;2.55;;;;;;;15.59;69.48;102577.28;5013064;28;20032;-73
2022/08/09 03:03:22;;;;;;;4.88;2.97;;;;;;;15.58;69.65;102582.56;5012261;28;20033;-73
2022/08/09 03:05:50;;;;;;;3.45;2.50;;;;;;;15.55;69.60;102580.84;5014282;28;20029;-73
2022/08/09 03:08:17;;;;;;;6.18;3.15;;;;;;;15.55;69.92;102583.47;5011912;28;20378;-73
2022/08/09 03:10:44;;;;;;;4.28;2.78;;;;;;;15.54;70.16;102579.09;5012806;28;20022;-72
2022/08/09 03:13:12;;;;;;;5.30;2.83;;;;;;;15.55;69.92;102577.38;5012449;28;20025;-73
2022/08/09 03:15:38;;;;;;;4.75;3.20;;;;;;;15.54;69.97;102573.84;5012796;28;20040;-72
2022/08/09 03:18:05;;;;;;;6.85;3.30;;;;;;;15.52;70.09;102574.78;5015641;28;20073;-73
2022/08/09 03:20:30;;;;;;;5.43;3.50;;;;;;;15.48;70.22;102580.09;5013924;28;20033;-73
2022/08/09 03:22:57;;;;;;;7.40;4.03;;;;;;;15.48;70.32;102574.00;5012135;28;20041;-72
2022/08/09 03:25:22;;;;;;;7.03;4.07;;;;;;;15.46;70.68;102565.28;5020134;28;20025;-72
2022/08/09 03:27:50;;;;;;;5.72;3.85;;;;;;;15.44;70.88;102569.69;5015262;28;20612;-72
2022/08/09 03:30:16;;;;;;;5.30;3.90;;;;;;;15.41;71.10;102568.00;5012329;28;20077;-73
2022/08/09 03:32:42;;;;;;;5.03;3.78;;;;;;;15.41;71.09;102568.00;5007674;28;20022;-73
2022/08/09 03:35:11;;;;;;;5.60;4.18;;;;;;;15.41;71.04;102567.13;5012738;28;20025;-73
2022/08/09 03:37:38;;;;;;;6.63;4.07;;;;;;;15.40;71.26;102575.88;5011404;28;20615;-73
2022/08/09 03:40:05;;;;;;;5.40;4.07;;;;;;;15.38;71.26;102573.28;5011258;28;20026;-73
2022/08/09 03:42:30;;;;;;;8.48;4.15;;;;;;;15.37;71.21;102582.06;5009580;28;20116;-73
2022/08/09 03:44:56;;;;;;;7.97;4.13;;;;;;;15.36;71.37;102575.06;5013051;28;20112;-73
2022/08/09 03:47:21;;;;;;;6.88;3.97;;;;;;;15.36;71.33;102585.56;5010829;28;20417;-73
2022/08/09 03:49:49;;;;;;;8.55;4.50;;;;;;;15.33;71.37;102576.00;5012412;28;20026;-72
2022/08/09 03:52:17;;;;;;;7.07;4.35;;;;;;;15.31;71.33;102585.66;5011672;28;20029;-73
2022/08/09 03:54:43;;;;;;;7.90;4.10;;;;;;;15.28;71.23;102583.09;5011495;28;20734;-73
2022/08/09 03:57:11;;;;;;;6.13;4.03;;;;;;;15.30;71.25;102591.78;5010221;28;20375;-72
2022/08/09 03:59:37;;;;;;;6.03;3.97;;;;;;;15.27;71.47;102578.72;5010447;28;20033;-73
2022/08/09 04:02:03;;;;;;;4.65;3.75;;;;;;;15.27;71.41;102586.59;5012066;28;20033;-72
2022/08/09 04:04:30;;;;;;;6.38;3.83;;;;;;;15.26;71.45;102590.09;5013076;28;20033;-73
2022/08/09 04:06:56;;;;;;;5.30;3.47;;;;;;;15.25;71.33;102588.38;5011678;28;20516;-73
2022/08/09 04:09:22;;;;;;;6.45;3.60;;;;;;;15.21;71.89;102581.44;5011087;28;20563;-73
2022/08/09 04:11:57;;;;;;;6.15;3.70;;;;;;;15.20;71.86;102584.97;5014921;28;20029;-73
2022/08/09 04:14:22;;;;;;;5.25;3.63;;;;;;;15.19;71.81;102575.41;5009899;28;20112;-73
2022/08/09 04:16:47;;;;;;;5.90;3.70;;;;;;;15.17;71.66;102577.16;5012053;28;20026;-73
2022/08/09 04:19:13;;;;;;;6.03;3.70;;;;;;;15.15;71.92;102576.31;5011006;28;20356;-73
2022/08/09 04:21:39;;;;;;;5.85;3.50;;;;;;;15.15;71.62;102582.44;5008064;28;20028;-73
2022/08/09 04:24:05;;;;;;;5.05;3.50;;;;;;;15.15;71.93;102584.19;5010665;28;20052;-73
2022/08/09 04:26:30;;;;;;;5.93;3.72;;;;;;;15.13;71.96;102585.97;5010784;28;20033;-73
2022/08/09 04:28:55;;;;;;;5.43;3.50;;;;;;;15.12;72.20;102589.47;5011118;28;20038;-73
2022/08/09 04:31:21;;;;;;;5.38;3.10;;;;;;;15.09;72.24;102587.78;5011061;28;20022;-73
2022/08/09 04:33:46;;;;;;;5.15;3.60;;;;;;;15.09;72.24;102592.16;5009577;28;20025;-72
2022/08/09 04:36:11;;;;;;;4.55;3.38;;;;;;;15.11;72.23;102595.63;5007590;28;20513;-73
2022/08/09 04:38:37;;;;;;;6.53;3.60;;;;;;;15.11;72.34;102600.84;5011443;28;20033;-73
2022/08/09 04:41:02;;;;;;;4.88;3.53;;;;;;;15.08;72.35;102604.41;5008203;28;20469;-73
2022/08/09 04:43:27;;;;;;;6.28;3.70;;;;;;;15.08;72.39;102604.41;5010140;28;20045;-73
2022/08/09 04:45:52;;;;;;;5.03;3.35;;;;;;;15.06;72.41;102608.81;5009944;28;20499;-72
2022/08/09 04:48:18;;;;;;;6.53;3.47;;;;;;;15.06;72.60;102605.31;5010385;28;20033;-73
2022/08/09 04:50:43;;;;;;;5.75;3.83;;;;;;;15.07;72.77;102609.66;5009612;28;20473;-73
2022/08/09 04:53:09;;;;;;;5.28;3.42;;;;;;;15.06;72.60;102608.81;5008310;28;20484;-73
2022/08/09 04:55:36;;;;;;;5.55;3.55;;;;;;;15.05;72.93;102603.56;5011412;28;20156;-73
2022/08/09 04:58:01;;;;;;;6.57;3.88;;;;;;;15.06;72.92;102608.81;5010299;28;20034;-73
2022/08/09 05:00:26;;;;;;;6.63;3.63;;;;;;;15.09;73.14;102615.75;5008158;28;20033;-73
2022/08/09 05:02:52;;;;;;;5.40;3.63;;;;;;;15.10;73.18;102612.22;5004751;28;20425;-73
2022/08/09 05:05:17;;;;;;;5.88;3.92;;;;;;;15.12;73.06;102618.31;5010741;28;20034;-73
2022/08/09 05:07:42;;;;;;;4.13;3.60;;;;;;;15.13;73.35;102620.06;5010869;28;20535;-72
2022/08/09 05:10:08;;;;;;;6.20;3.85;;;;;;;15.16;73.29;102620.00;5010190;28;20034;-73
2022/08/09 05:12:33;;;;;;;4.90;3.58;;;;;;;15.18;73.28;102624.31;5011088;28;20406;-73
2022/08/09 05:14:59;;;;;;;7.35;3.70;;;;;;;15.21;73.49;102618.16;5010108;28;20490;-72
2022/08/09 05:17:24;;;;;;;6.75;3.83;;;;;;;15.24;73.78;102628.59;5010092;28;20029;-73
2022/08/09 05:19:50;;;;;;;4.75;3.95;;;;;;;15.29;73.41;102626.78;5009356;28;20059;-73
2022/08/09 05:22:15;;;;;;;5.35;4.20;;;;;;;15.32;73.88;102629.34;5011697;28;20048;-73
2022/08/09 05:24:41;;;;;;;4.80;3.60;;;;;;;15.37;73.90;102625.78;5013391;28;20171;-73
2022/08/09 05:27:06;;;;;;;4.60;3.75;;;;;;;15.40;74.18;102626.59;5013395;28;20021;-73
2022/08/09 05:29:32;;;;;;;6.15;3.58;;;;;;;15.45;74.19;102629.13;5014207;28;20500;-73
2022/08/09 05:32:00;;;;;;;5.63;4.30;;;;;;;15.51;74.49;102626.41;5014358;28;20657;-73
2022/08/09 05:34:27;;;;;;;6.25;3.85;;;;;;;15.55;74.47;102622.81;5011169;28;20041;-73
2022/08/09 05:36:52;;;;;;;6.47;3.90;;;;;;;15.61;74.68;102621.84;5013680;28;20038;-73
2022/08/09 05:39:17;;;;;;;9.00;4.22;;;;;;;15.69;74.53;102627.81;5015098;28;20461;-73
2022/08/09 05:41:43;;;;;;;8.13;4.30;;;;;;;15.74;74.32;102628.59;5012268;28;20041;-72
2022/08/09 05:44:09;;;;;;;6.88;4.65;;;;;;;15.80;74.57;102624.13;5012533;28;20500;-72
2022/08/09 05:46:34;;;;;;;7.22;4.70;;;;;;;15.85;74.67;102628.44;5012158;28;20033;-73
2022/08/09 05:48:59;;;;;;;5.78;4.47;;;;;;;15.90;74.12;102631.81;5014853;28;20029;-73
2022/08/09 05:51:25;;;;;;;7.78;5.05;;;;;;;15.96;74.98;102635.22;5014160;28;20531;-73
2022/08/09 05:53:50;;;;;;;8.25;4.88;;;;;;;16.02;74.67;102637.75;5014201;28;20397;-73
2022/08/09 05:56:15;;;;;;;6.10;4.47;;;;;;;16.08;74.98;102634.97;5012934;28;20432;-73
2022/08/09 05:58:40;;;;;;;5.90;4.90;;;;;;;16.13;74.65;102634.91;5013799;28;20389;-73
2022/08/09 06:01:07;;;;;;;7.28;4.85;;;;;;;16.19;74.31;102638.25;5011220;28;20018;-73
2022/08/09 06:03:32;;;;;;;7.50;5.18;;;;;;;16.28;74.56;102638.94;5012036;28;20051;-73
2022/08/09 06:05:58;;;;;;;6.72;4.55;;;;;;;16.34;74.43;102646.72;5010722;28;20029;-73
2022/08/09 06:08:23;;;;;;;7.93;5.18;;;;;;;16.40;74.31;102643.94;5012203;28;20026;-72
2022/08/09 06:10:49;;;;;;;7.75;5.05;;;;;;;16.46;74.48;102643.81;5012874;28;20490;-73
2022/08/09 06:13:14;;;;;;;7.63;5.05;;;;;;;16.54;74.18;102649.78;5012371;28;20026;-73
2022/08/09 06:15:39;;;;;;;7.45;5.35;;;;;;;16.60;73.75;102650.53;5011454;28;20029;-73
2022/08/09 06:18:05;;;;;;;6.80;4.75;;;;;;;16.65;73.60;102644.25;5013871;28;20061;-73
2022/08/09 06:20:31;;;;;;;6.63;4.75;;;;;;;16.72;73.79;102655.53;5007622;28;20034;-73
2022/08/09 06:22:56;;;;;;;6.72;4.60;;;;;;;16.77;73.65;102653.63;5011717;28;20385;-73
2022/08/09 06:25:22;;;;;;;9.57;5.50;;;;;;;16.81;73.66;102655.31;5013537;28;20032;-73
2022/08/09 06:27:47;;;;;;;8.07;5.70;;;;;;;16.89;73.13;102656.91;5010426;28;20717;-73
2022/08/09 06:30:12;;;;;;;6.28;4.57;;;;;;;16.96;73.67;102661.13;5008159;28;20354;-73
2022/08/09 06:32:38;;;;;;;7.40;4.95;;;;;;;17.01;73.88;102659.28;5012342;28;20041;-73
2022/08/09 06:35:03;;;;;;;6.07;4.70;;;;;;;17.07;73.87;102661.75;5013519;28;20125;-73
2022/08/09 06:37:29;;;;;;;6.85;4.80;;;;;;;17.13;73.62;102656.34;5012157;28;20066;-73
2022/08/09 06:39:54;;;;;;;7.82;5.50;;;;;;;17.21;72.77;102655.28;5013321;28;20026;-73
2022/08/09 06:42:20;;;;;;;6.70;5.07;;;;;;;17.29;73.08;102661.22;5013743;28;20041;-72
2022/08/09 06:44:46;;;;;;;7.50;5.50;;;;;;;17.35;73.03;102661.06;5013303;28;20032;-73
2022/08/09 06:47:11;;;;;;;9.27;5.50;;;;;;;17.43;72.32;102666.13;5012690;28;20030;-73
2022/08/09 06:49:37;;;;;;;7.15;5.28;;;;;;;17.49;72.03;102654.59;5008208;28;20026;-73
2022/08/09 06:52:02;;;;;;;7.85;4.82;;;;;;;17.57;72.37;102663.16;5013765;28;20036;-72
2022/08/09 06:54:27;;;;;;;6.63;4.40;;;;;;;17.64;71.92;102662.06;5011574;28;20489;-73
2022/08/09 06:56:53;;;;;;;7.70;5.10;;;;;;;17.69;71.65;102665.47;5012750;28;20026;-73
2022/08/09 06:59:18;;;;;;;6.32;4.43;;;;;;;17.75;71.55;102667.94;5009630;28;20180;-73
2022/08/09 07:01:43;;;;;;;12.68;5.78;;;;;;;17.81;70.56;102668.66;5012843;28;20029;-73
2022/08/09 07:04:09;;;;;;;7.85;4.43;;;;;;;17.88;71.45;102668.44;5012181;28;20538;-73
2022/08/09 07:06:34;;;;;;;7.13;4.63;;;;;;;17.95;70.73;102668.28;5012096;28;20465;-74
2022/08/09 07:08:59;;;;;;;8.02;4.88;;;;;;;18.03;71.01;102682.13;5008096;28;20033;-73
2022/08/09 07:11:25;;;;;;;6.72;4.60;;;;;;;18.08;70.47;102672.34;5012689;28;20018;-73
2022/08/09 07:13:50;;;;;;;7.78;4.88;;;;;;;18.13;69.67;102672.19;5013277;28;20553;-73
2022/08/09 07:16:15;;;;;;;6.63;4.20;;;;;;;18.20;69.38;102676.41;5009524;28;20115;-73
2022/08/09 07:18:40;;;;;;;6.05;3.92;;;;;;;18.26;70.18;102684.13;5012317;28;20110;-73
2022/08/09 07:21:06;;;;;;;5.20;4.07;;;;;;;18.33;69.56;102687.44;5009234;28;20380;-73
2022/08/09 07:23:31;;;;;;;6.53;4.15;;;;;;;18.37;68.64;102675.03;5009682;28;20087;-73
2022/08/09 07:25:56;;;;;;;6.40;4.55;;;;;;;18.43;69.65;102673.09;5011631;28;20485;-73
2022/08/09 07:28:22;;;;;;;5.97;4.22;;;;;;;18.50;69.22;102674.63;5013132;28;20120;-73
2022/08/09 07:30:47;;;;;;;8.32;4.70;;;;;;;18.56;68.14;102668.31;5023684;28;20022;-73
2022/08/09 07:33:12;;;;;;;5.00;3.80;;;;;;;18.62;68.20;102676.03;5009463;28;20036;-73
2022/08/09 07:35:38;;;;;;;6.22;3.67;;;;;;;18.68;67.95;102682.03;5008865;28;20193;-72
2022/08/09 07:38:03;;;;;;;5.28;4.15;;;;;;;18.74;68.61;102687.13;5010429;28;20049;-72
2022/08/09 07:40:29;;;;;;;5.75;4.15;;;;;;;18.79;67.29;102682.53;5009617;28;20035;-73
2022/08/09 07:42:58;;;;;;;7.28;3.92;;;;;;;18.84;67.48;102685.91;5009724;28;20056;-73
2022/08/09 07:45:25;;;;;;;7.13;3.63;;;;;;;18.87;66.39;102677.91;5008018;28;20034;-73
2022/08/09 07:47:55;;;;;;;7.05;3.33;;;;;;;18.92;66.85;102689.19;5010253;28;20029;-73
2022/08/09 07:50:22;;;;;;;4.70;3.33;;;;;;;18.98;66.47;102676.72;5010445;28;20101;-73
2022/08/09 07:52:48;;;;;;;6.80;3.63;;;;;;;19.04;66.72;102684.44;5009741;28;20041;-73
2022/08/09 07:55:14;;;;;;;7.18;4.13;;;;;;;19.09;65.63;102682.53;5009767;28;20022;-73
2022/08/09 07:57:39;;;;;;;6.80;3.75;;;;;;;19.14;66.22;102685.03;5009809;28;20037;-74
2022/08/09 08:00:06;;;;;;;6.10;3.42;;;;;;;19.21;67.40;102686.56;5011452;28;20378;-73
2022/08/09 08:02:31;;;;;;;5.82;3.35;;;;;;;19.26;65.26;102681.97;5010575;28;20042;-73
2022/08/09 08:04:56;;;;;;;4.45;3.20;;;;;;;19.31;66.43;102693.25;5010100;28;20056;-73
2022/08/09 08:07:22;;;;;;;6.25;3.65;;;;;;;19.35;64.95;102689.59;5011185;28;20033;-73
2022/08/09 08:09:47;;;;;;;6.05;3.15;;;;;;;19.39;64.64;102690.34;5010322;28;20030;-73
2022/08/09 08:12:12;;;;;;;5.05;3.03;;;;;;;19.42;64.34;102691.09;5010403;28;20021;-73
2022/08/09 08:14:37;;;;;;;4.70;3.03;;;;;;;19.47;65.60;102685.66;5011056;28;20087;-73
2022/08/09 08:17:03;;;;;;;5.55;2.90;;;;;;;19.55;64.45;102694.19;5011022;28;20026;-73
2022/08/09 08:19:28;;;;;;;4.72;3.50;;;;;;;19.59;63.63;102697.59;5010620;28;20026;-73
2022/08/09 08:21:53;;;;;;;4.35;3.08;;;;;;;19.63;64.30;102687.81;5008323;28;20030;-73
2022/08/09 08:24:19;;;;;;;4.75;2.92;;;;;;;19.70;64.77;102690.16;5010462;28;20493;-73
2022/08/09 08:26:44;;;;;;;3.67;2.83;;;;;;;19.77;63.66;102687.28;5011880;28;20034;-73
2022/08/09 08:29:09;;;;;;;4.57;2.78;;;;;;;19.80;63.15;102681.91;5009312;28;20041;-73
2022/08/09 08:31:35;;;;;;;5.00;2.83;;;;;;;19.84;63.13;102672.97;5027421;28;20512;-73
2022/08/09 08:34:00;;;;;;;6.25;2.75;;;;;;;19.88;62.24;102676.38;5011098;28;20076;-73
2022/08/09 08:36:26;;;;;;;4.95;2.88;;;;;;;19.94;63.28;102673.53;5013896;28;20053;-73
2022/08/09 08:38:52;;;;;;;4.45;2.65;;;;;;;19.96;62.63;102674.34;5010565;28;22015;-74
2022/08/09 08:41:17;;;;;;;6.75;2.70;;;;;;;20.00;62.25;102679.47;5010154;28;20029;-73
2022/08/09 08:43:43;;;;;;;4.28;2.33;;;;;;;20.06;62.21;102685.44;5011132;28;20381;-74
2022/08/09 08:46:11;;;;;;;5.30;2.45;;;;;;;20.09;62.11;102690.59;5016443;28;20042;-73
2022/08/09 08:48:39;;;;;;;4.45;2.80;;;;;;;20.13;62.38;102687.81;5012577;28;20029;-73
2022/08/09 08:51:05;;;;;;;7.15;2.45;;;;;;;20.17;60.56;102686.75;5011465;28;20044;-73
2022/08/09 08:53:30;;;;;;;4.10;2.67;;;;;;;20.22;61.53;102678.66;5012287;28;20029;-73
2022/08/09 08:55:55;;;;;;;4.13;2.40;;;;;;;20.29;59.63;102687.22;5008981;28;20104;-74
2022/08/09 08:58:22;;;;;;;5.53;2.58;;;;;;;20.30;60.00;102689.81;5013815;28;20029;-73
2022/08/09 09:00:48;;;;;;;4.13;2.10;;;;;;;20.34;59.83;102690.53;5015157;28;20496;-73
2022/08/09 09:03:15;;;;;;;4.10;2.30;;;;;;;20.38;60.06;102694.81;5016735;28;20034;-74
2022/08/09 09:05:41;;;;;;;3.60;1.83;;;;;;;20.42;58.93;102693.78;5011912;28;20056;-73
2022/08/09 09:08:08;;;;;;;2.67;1.92;;;;;;;20.46;59.16;102695.38;5008608;28;20022;-74
2022/08/09 09:10:34;;;;;;;6.20;1.80;;;;;;;20.52;58.35;102698.69;5014936;28;20117;-73
2022/08/09 09:13:01;;;;;;;2.47;1.60;;;;;;;20.54;58.50;102702.16;5009899;28;20140;-73
2022/08/09 09:15:26;;;;;;;2.33;1.58;;;;;;;20.57;58.07;102700.28;5012251;28;20037;-74
2022/08/09 09:17:51;;;;;;;3.70;1.92;;;;;;;20.61;58.17;102696.56;5012107;28;20080;-73
2022/08/09 09:20:17;;;;;;;3.05;1.65;;;;;;;20.61;57.41;102706.28;5012206;28;20040;-74
2022/08/09 09:22:51;;;;;;;3.67;1.70;;;;;;;20.64;58.09;102706.19;5011103;28;20049;-73
2022/08/09 09:25:43;;;;;;;3.00;1.92;;;;;;;20.67;58.00;102702.53;5010391;28;20040;-74
2022/08/09 09:28:10;;;;;;;2.72;1.50;;;;;;;20.72;58.39;102701.44;5012817;28;20049;-74
2022/08/09 09:30:53;;;;;;;2.95;1.70;;;;;;;20.79;58.09;102707.38;5010089;28;20022;-74
2022/08/09 09:33:18;;;;;;;3.15;1.70;;;;;;;20.82;55.99;102707.25;5011143;28;20153;-74
2022/08/09 09:35:55;;;;;;;3.88;1.77;;;;;;;20.89;57.15;102697.28;5013320;28;20108;-74
2022/08/09 09:38:22;;;;;;;2.70;1.63;;;;;;;20.92;57.47;102698.03;5011299;28;20108;-74
2022/08/09 09:40:48;;;;;;;4.40;1.65;;;;;;;20.96;55.59;102696.13;5012863;28;20029;-74
2022/08/09 09:43:19;;;;;;;3.13;1.35;;;;;;;20.99;56.91;102693.38;5012933;28;20038;-74
2022/08/09 09:45:46;;;;;;;;;;;;;;;21.04;57.59;102695.81;5013567;28;20029;-74
2022/08/09 09:48:11;;;;;;;3.05;1.30;;;;;;;21.07;56.60;102693.91;5011535;28;20432;-74
2022/08/09 09:50:42;;;;;;;3.42;1.20;;;;;;;21.12;55.14;102688.41;5013258;28;20029;-74
2022/08/09 09:53:14;;;;;;;1.77;1.10;;;;;;;21.14;54.62;102694.50;5013809;28;20022;-74
2022/08/09 09:55:59;;;;;;;2.45;1.20;;;;;;;21.16;55.74;102686.53;5012147;28;20037;-74
2022/08/09 09:58:41;;;;;;;3.58;1.10;;;;;;;21.18;52.26;102693.47;5014017;28;20438;-73
2022/08/09 10:01:16;;;;;;;2.05;0.90;;;;;;;21.27;55.07;102692.22;5010664;28;20466;-74
2022/08/09 10:03:49;;;;;;;2.33;1.08;;;;;;;21.31;53.42;102695.59;5011424;28;20496;-73
2022/08/09 10:06:14;;;;;;;1.70;1.00;;;;;;;21.37;53.13;102693.56;5009576;28;20030;-74
2022/08/09 10:08:42;;;;;;;1.80;0.90;;;;;;;21.41;53.08;102704.03;5011908;28;20096;-74
2022/08/09 10:11:25;;;;;;;1.35;0.90;;;;;;;21.45;53.99;102702.97;5010216;28;20060;-73
2022/08/09 10:13:52;;;;;;;2.95;1.10;;;;;;;21.46;52.60;102697.59;5009810;28;20034;-74
2022/08/09 10:16:29;;;;;;;2.97;1.02;;;;;;;21.52;53.47;102696.50;5011921;28;20370;-74
2022/08/09 10:18:57;;;;;;;1.35;0.88;;;;;;;21.58;52.88;102701.50;5009512;28;20025;-74
2022/08/09 10:21:23;;;;;;;1.83;1.08;;;;;;;21.62;52.15;102703.16;5014033;28;20052;-74
2022/08/09 10:23:49;;;;;;;2.45;0.95;;;;;;;21.65;52.65;102699.50;5006419;28;20645;-74
2022/08/09 10:26:15;;;;;;;4.72;1.10;;;;;;;21.67;52.23;102698.53;5013906;28;20029;-73
2022/08/09 10:28:42;;;;;;;2.50;0.90;;;;;;;21.71;52.17;102690.41;5013622;28;20385;-74
2022/08/09 10:31:10;;;;;;;1.83;0.93;;;;;;;21.73;51.22;102689.44;5010514;28;20781;-73
2022/08/09 10:33:36;;;;;;;2.17;1.00;;;;;;;21.78;52.54;102691.88;5009104;28;20477;-74
2022/08/09 10:36:03;;;;;;;1.90;1.10;;;;;;;21.82;52.02;102685.53;5007933;28;20051;-74
2022/08/09 10:38:29;;;;;;;2.53;1.00;;;;;;;21.85;50.12;102681.88;5010267;28;20033;-73
2022/08/09 10:40:54;;;;;;;2.50;1.05;;;;;;;21.88;51.49;102679.94;5006166;28;20029;-74
2022/08/09 10:43:19;;;;;;;2.40;1.20;;;;;;;21.91;50.75;102679.81;5011322;28;20056;-74
2022/08/09 10:45:45;;;;;;;1.50;1.05;;;;;;;21.92;50.34;102675.38;5012580;28;20041;-74
2022/08/09 10:48:18;;;;;;;2.28;0.90;;;;;;;21.91;50.32;102677.16;5010944;28;20401;-74
2022/08/09 10:51:11;;;;;;;2.33;1.10;;;;;;;21.93;51.30;102672.66;5011192;28;20053;-74
2022/08/09 10:54:04;;;;;;;1.90;0.90;;;;;;;21.97;52.40;102671.59;5008137;28;20018;-74
2022/08/09 10:56:36;;;;;;;1.60;0.85;;;;;;;22.00;51.10;102667.09;5009028;28;20030;-74
2022/08/09 10:59:21;;;;;;;2.78;1.00;;;;;;;22.01;51.75;102666.16;5027062;28;20033;-73
2022/08/09 11:01:48;;;;;;;1.98;1.00;;;;;;;22.01;50.33;102660.84;5011389;28;20129;-74
2022/08/09 11:04:19;;;;;;;1.10;0.82;;;;;;;22.05;50.08;102667.72;5011716;28;20026;-74
2022/08/09 11:06:46;;;;;;;2.83;0.90;;;;;;;22.08;50.13;102668.47;5008701;28;20392;-74
2022/08/09 11:09:16;;;;;;;1.20;0.80;;;;;;;22.13;50.64;102663.78;5010502;28;20036;-71
2022/08/09 11:11:53;;;;;;;1.87;0.90;;;;;;;22.19;51.63;102670.63;5014755;28;20038;-74
2022/08/09 11:14:37;;;;;;;1.27;0.80;;;;;;;22.24;49.69;102665.94;5008103;28;20034;-74
2022/08/09 11:17:23;;;;;;;1.20;0.80;;;;;;;22.28;51.32;102667.53;5009915;28;20033;-74
2022/08/09 11:20:06;;;;;;;1.60;0.93;;;;;;;22.35;51.24;102660.16;5007564;28;20045;-74
2022/08/09 11:22:43;;;;;;;1.90;0.90;;;;;;;22.38;51.02;102667.09;5013196;28;20034;-74
2022/08/09 11:25:23;;;;;;;1.08;0.80;;;;;;;22.41;51.72;102659.00;5010354;28;20033;-73
2022/08/09 11:27:53;;;;;;;2.30;1.02;;;;;;;22.47;51.62;102664.06;5013637;28;20026;-73
2022/08/09 11:30:21;;;;;;;1.63;0.90;;;;;;;22.53;51.08;102655.81;5012270;28;20034;-74